createdAt,value
2023-02-27T00:01:39.276Z,3.43
2023-02-27T00:04:08.518Z,11.50
2023-02-27T00:06:37.653Z,2.40
2023-02-27T00:09:07.100Z,2.60
2023-02-27T00:11:38.429Z,5.60
2023-02-27T00:14:08.874Z,2.17
2023-02-27T00:16:37.974Z,5.30
2023-02-27T00:19:07.089Z,6.43
2023-02-27T00:21:36.938Z,2.00
2023-02-27T00:24:07.077Z,6.53
2023-02-27T00:26:36.588Z,7.43
2023-02-27T00:29:06.265Z,8.27
2023-02-27T00:31:36.781Z,10.10
2023-02-27T00:34:05.850Z,5.63
2023-02-27T00:36:34.937Z,8.27
2023-02-27T00:39:04.739Z,4.87
2023-02-27T00:41:33.811Z,4.93
2023-02-27T00:44:02.947Z,10.83
2023-02-27T00:46:32.062Z,12.73
2023-02-27T00:49:02.507Z,5.40
2023-02-27T00:51:31.776Z,3.87
2023-02-27T00:54:00.869Z,5.63
2023-02-27T00:56:30.103Z,6.17
2023-02-27T00:58:59.210Z,4.83
2023-02-27T01:01:28.545Z,4.83
2023-02-27T01:03:59.051Z,7.17
2023-02-27T01:06:29.601Z,5.80
2023-02-27T01:08:58.690Z,4.07
2023-02-27T01:11:28.063Z,4.97
2023-02-27T01:13:57.438Z,2.93
2023-02-27T01:16:26.739Z,6.73
2023-02-27T01:18:56.234Z,6.07
2023-02-27T01:21:26.182Z,4.07
2023-02-27T01:23:56.851Z,4.10
2023-02-27T01:26:27.111Z,3.20
2023-02-27T01:28:56.542Z,14.23
2023-02-27T01:31:25.823Z,5.97
2023-02-27T01:33:57.348Z,3.37
2023-02-27T01:36:26.564Z,8.67
2023-02-27T01:38:56.965Z,3.13
2023-02-27T01:41:27.199Z,4.17
2023-02-27T01:43:58.935Z,4.37
2023-02-27T01:46:28.685Z,9.93
2023-02-27T01:49:01.524Z,2.50
2023-02-27T01:51:35.458Z,3.40
2023-02-27T01:54:08.333Z,6.00
2023-02-27T01:56:37.996Z,7.47
2023-02-27T01:59:09.907Z,4.60
2023-02-27T02:01:39.863Z,4.97
2023-02-27T02:04:16.901Z,6.57
2023-02-27T02:06:51.504Z,3.43
2023-02-27T02:09:23.788Z,4.23
2023-02-27T02:11:53.061Z,4.63
2023-02-27T02:14:22.313Z,4.40
2023-02-27T02:17:09.675Z,8.90
2023-02-27T02:20:25.308Z,3.60
2023-02-27T02:23:21.273Z,5.67
2023-02-27T02:26:29.264Z,2.13
2023-02-27T02:29:35.708Z,4.13
2023-02-27T02:32:25.351Z,1.80
2023-02-27T02:35:34.420Z,5.13
2023-02-27T02:41:12.183Z,1.63
2023-02-27T02:43:52.134Z,2.37
2023-02-27T02:46:32.090Z,3.97
2023-02-27T02:49:11.586Z,2.57
2023-02-27T02:51:49.639Z,5.33
2023-02-27T02:54:25.620Z,3.70
2023-02-27T02:57:03.966Z,4.20
2023-02-27T02:59:38.967Z,3.33
2023-02-27T03:02:11.328Z,3.73
2023-02-27T03:04:44.294Z,5.77
2023-02-27T03:07:24.946Z,3.27
2023-02-27T03:09:58.847Z,2.10
2023-02-27T03:12:32.564Z,2.27
2023-02-27T03:15:08.953Z,1.87
2023-02-27T03:17:44.122Z,1.67
2023-02-27T03:20:19.056Z,11.20
2023-02-27T03:22:51.172Z,2.67
2023-02-27T03:25:22.612Z,3.17
2023-02-27T03:28:00.968Z,1.83
2023-02-27T03:30:36.090Z,3.03
2023-02-27T03:33:13.559Z,6.83
2023-02-27T03:35:50.716Z,2.37
2023-02-27T03:38:27.849Z,2.50
2023-02-27T03:41:07.931Z,3.17
2023-02-27T03:43:57.435Z,4.87
2023-02-27T03:46:29.126Z,3.40
2023-02-27T03:48:58.296Z,4.03
2023-02-27T03:51:28.933Z,6.97
2023-02-27T03:54:05.867Z,2.00
2023-02-27T03:56:40.861Z,3.47
2023-02-27T03:59:11.870Z,8.73
2023-02-27T04:01:46.494Z,2.70
2023-02-27T04:04:17.540Z,2.17
2023-02-27T04:07:25.007Z,3.40
2023-02-27T04:10:20.857Z,3.00
2023-02-27T04:13:17.549Z,5.80
2023-02-27T04:16:11.953Z,2.03
2023-02-27T04:18:57.060Z,3.07
2023-02-27T04:21:33.435Z,5.17
2023-02-27T04:24:12.997Z,2.87
2023-02-27T04:26:47.873Z,3.77
2023-02-27T04:29:22.087Z,2.83
2023-02-27T04:32:01.376Z,3.03
2023-02-27T04:34:38.413Z,1.87
2023-02-27T04:37:12.651Z,2.40
2023-02-27T04:39:47.815Z,5.07
2023-02-27T04:42:20.024Z,7.43
2023-02-27T04:44:51.210Z,1.80
2023-02-27T04:47:25.152Z,2.37
2023-02-27T04:49:58.710Z,5.90
2023-02-27T04:52:32.877Z,9.70
2023-02-27T04:55:07.578Z,3.30
2023-02-27T04:57:41.163Z,1.67
2023-02-27T05:00:14.108Z,3.17
2023-02-27T05:02:47.965Z,8.20
2023-02-27T05:05:20.836Z,5.43
2023-02-27T05:07:53.478Z,5.37
2023-02-27T05:10:30.570Z,1.77
2023-02-27T05:13:04.022Z,3.70
2023-02-27T05:15:37.116Z,2.63
2023-02-27T05:18:09.909Z,4.17
2023-02-27T05:20:52.890Z,5.27
2023-02-27T05:23:29.680Z,5.80
2023-02-27T05:26:05.589Z,7.43
2023-02-27T05:28:39.984Z,8.17
2023-02-27T05:31:16.955Z,4.43
2023-02-27T05:33:53.124Z,7.53
2023-02-27T05:36:27.089Z,3.17
2023-02-27T05:39:00.525Z,3.87
2023-02-27T05:41:34.824Z,3.83
2023-02-27T05:44:09.138Z,3.17
2023-02-27T05:46:42.609Z,4.10
2023-02-27T05:49:18.295Z,2.90
2023-02-27T05:51:51.582Z,3.73
2023-02-27T05:54:30.692Z,3.47
2023-02-27T05:57:00.861Z,4.10
2023-02-27T05:59:35.632Z,6.30
2023-02-27T06:02:04.792Z,4.80
2023-02-27T06:04:35.250Z,3.73
2023-02-27T06:07:08.089Z,8.80
2023-02-27T06:09:38.302Z,9.07
2023-02-27T06:12:07.534Z,3.37
2023-02-27T06:14:36.628Z,5.07
2023-02-27T06:17:06.109Z,5.20
2023-02-27T06:19:36.548Z,4.87
2023-02-27T06:22:05.634Z,3.57
2023-02-27T06:24:34.681Z,4.27
2023-02-27T06:27:03.890Z,5.13
2023-02-27T06:29:33.060Z,12.47
2023-02-27T06:32:02.160Z,5.33
2023-02-27T06:34:31.245Z,3.00
2023-02-27T06:37:04.149Z,5.57
2023-02-27T06:39:33.745Z,3.13
2023-02-27T06:42:02.883Z,7.93
2023-02-27T06:44:32.094Z,11.43
2023-02-27T06:47:01.162Z,8.40
2023-02-27T06:49:30.250Z,6.07
2023-02-27T06:52:00.836Z,6.00
2023-02-27T06:54:29.951Z,6.17
2023-02-27T06:56:59.083Z,5.13
2023-02-27T06:59:28.225Z,6.40
2023-02-27T07:01:59.080Z,7.07
2023-02-27T07:04:28.336Z,4.03
2023-02-27T07:07:32.400Z,8.23
2023-02-27T07:09:49.795Z,7.57
2023-02-27T07:12:18.864Z,7.40
2023-02-27T07:14:47.980Z,6.87
2023-02-27T07:17:17.129Z,6.37
2023-02-27T07:19:46.395Z,10.27
2023-02-27T07:22:15.524Z,14.43
2023-02-27T07:24:44.576Z,7.73
2023-02-27T07:27:15.026Z,14.70
2023-02-27T07:29:44.131Z,8.27
2023-02-27T07:32:13.334Z,6.37
2023-02-27T07:34:42.634Z,5.87
2023-02-27T07:37:11.829Z,8.77
2023-02-27T07:39:40.957Z,10.63
2023-02-27T07:42:10.388Z,9.07
2023-02-27T07:44:43.269Z,12.80
2023-02-27T07:47:12.613Z,9.20
2023-02-27T07:49:41.894Z,9.03
2023-02-27T07:52:11.269Z,8.07
2023-02-27T07:54:40.411Z,7.30
2023-02-27T07:57:09.558Z,7.47
2023-02-27T07:59:38.700Z,8.13
2023-02-27T08:02:10.595Z,7.30
2023-02-27T08:04:39.674Z,9.13
2023-02-27T08:07:08.938Z,7.23
2023-02-27T08:09:38.063Z,9.87
2023-02-27T08:12:07.336Z,9.33
2023-02-27T08:14:36.601Z,7.53
2023-02-27T08:17:05.629Z,8.37
2023-02-27T08:19:36.182Z,11.07
2023-02-27T08:22:05.330Z,5.87
2023-02-27T08:24:34.456Z,5.37
2023-02-27T08:27:03.632Z,7.50
2023-02-27T08:29:32.953Z,7.20
2023-02-27T08:32:02.451Z,16.93
2023-02-27T08:34:31.602Z,8.17
2023-02-27T08:37:02.151Z,10.73
2023-02-27T08:39:31.282Z,6.03
2023-02-27T08:42:00.426Z,14.63
2023-02-27T08:44:29.486Z,6.97
2023-02-27T08:46:58.545Z,12.97
2023-02-27T08:49:27.638Z,5.53
2023-02-27T08:51:56.706Z,9.77
2023-02-27T08:54:27.143Z,7.40
2023-02-27T08:56:56.314Z,16.43
2023-02-27T08:59:25.474Z,12.33
2023-02-27T09:01:54.508Z,6.57
2023-02-27T09:04:23.651Z,11.30
2023-02-27T09:06:53.505Z,7.57
2023-02-27T09:09:24.078Z,10.43
2023-02-27T09:11:54.539Z,10.83
2023-02-27T09:14:24.039Z,8.97
2023-02-27T09:16:53.299Z,8.00
2023-02-27T09:19:22.710Z,10.77
2023-02-27T09:21:52.045Z,9.07
2023-02-27T09:24:21.196Z,4.77
2023-02-27T09:26:51.625Z,8.00
2023-02-27T09:29:23.769Z,5.73
2023-02-27T09:31:53.350Z,3.53
2023-02-27T09:34:22.586Z,7.47
2023-02-27T09:36:52.166Z,7.30
2023-02-27T09:39:22.056Z,6.40
2023-02-27T09:41:58.495Z,8.17
2023-02-27T09:44:45.742Z,3.33
2023-02-27T09:47:22.041Z,3.60
2023-02-27T09:50:00.608Z,5.53
2023-02-27T09:52:31.110Z,7.20
2023-02-27T09:55:00.559Z,7.37
2023-02-27T09:57:45.409Z,9.00
2023-02-27T10:00:36.942Z,5.47
2023-02-27T10:03:24.262Z,4.50
2023-02-27T10:06:07.112Z,6.13
2023-02-27T10:08:44.078Z,2.83
2023-02-27T10:11:18.223Z,5.97
2023-02-27T10:13:58.937Z,3.47
2023-02-27T10:16:32.571Z,3.97
2023-02-27T10:19:04.288Z,2.67
2023-02-27T10:21:38.279Z,6.87
2023-02-27T10:24:16.107Z,7.63
2023-02-27T10:26:47.290Z,2.07
2023-02-27T10:29:21.831Z,6.00
2023-02-27T10:31:58.283Z,2.73
2023-02-27T10:34:28.857Z,2.73
2023-02-27T10:37:00.368Z,5.77
2023-02-27T10:39:30.443Z,4.57
2023-02-27T10:42:06.433Z,2.53
2023-02-27T10:44:35.549Z,4.47
2023-02-27T10:47:06.125Z,3.60
2023-02-27T10:49:36.862Z,1.93
2023-02-27T10:52:10.538Z,2.70
2023-02-27T10:54:40.290Z,3.83
2023-02-27T10:57:28.594Z,5.37
2023-02-27T11:00:00.624Z,4.33
2023-02-27T11:02:37.463Z,9.37
2023-02-27T11:05:08.847Z,4.23
2023-02-27T11:07:39.907Z,6.90
2023-02-27T11:10:19.477Z,8.80
2023-02-27T11:13:03.633Z,3.70
2023-02-27T11:15:35.002Z,2.63
2023-02-27T11:18:26.601Z,6.07
2023-02-27T11:21:09.583Z,4.10
2023-02-27T11:23:38.815Z,6.23
2023-02-27T11:26:16.291Z,4.07
2023-02-27T11:28:45.651Z,5.70
2023-02-27T11:31:21.790Z,2.97
2023-02-27T11:33:55.253Z,2.80
2023-02-27T11:36:39.394Z,3.57
2023-02-27T11:39:08.866Z,8.70
2023-02-27T11:41:37.990Z,3.67
2023-02-27T11:44:07.803Z,1.77
2023-02-27T11:46:48.315Z,3.37
2023-02-27T11:49:31.242Z,2.20
2023-02-27T11:52:09.929Z,1.87
2023-02-27T11:54:41.860Z,4.30
2023-02-27T11:57:22.977Z,6.97
2023-02-27T11:59:55.066Z,2.40
2023-02-27T12:02:31.396Z,2.63
2023-02-27T12:05:07.590Z,5.60
2023-02-27T12:07:44.046Z,1.97
2023-02-27T12:10:19.028Z,5.07
2023-02-27T12:12:51.872Z,3.57
2023-02-27T12:15:28.817Z,4.87
2023-02-27T12:18:07.948Z,3.67
2023-02-27T12:20:46.286Z,3.70
2023-02-27T12:23:22.149Z,1.67
2023-02-27T12:25:53.925Z,6.13
2023-02-27T12:28:44.908Z,7.97
2023-02-27T12:31:32.921Z,4.63
2023-02-27T12:34:11.728Z,10.00
2023-02-27T12:36:42.323Z,4.17
2023-02-27T12:39:19.367Z,6.80
2023-02-27T12:42:24.640Z,3.50
2023-02-27T12:45:32.560Z,1.60
2023-02-27T12:48:14.538Z,2.45
2023-02-27T12:50:51.970Z,1.52
2023-02-27T12:53:58.284Z,3.20
2023-02-27T12:56:36.678Z,4.07
2023-02-27T12:59:15.954Z,5.28
2023-02-27T13:01:51.935Z,3.58
2023-02-27T13:04:29.567Z,4.35
2023-02-27T13:07:06.426Z,1.98
2023-02-27T13:09:43.000Z,3.43
2023-02-27T13:12:24.936Z,2.80
2023-02-27T13:15:00.698Z,1.75
2023-02-27T13:17:38.435Z,2.03
2023-02-27T13:20:27.482Z,4.67
2023-02-27T13:23:05.619Z,4.03
2023-02-27T13:25:39.840Z,2.30
2023-02-27T13:28:14.498Z,2.87
2023-02-27T13:30:47.768Z,5.47
2023-02-27T13:33:29.628Z,3.87
2023-02-27T13:36:08.224Z,3.13
2023-02-27T13:38:44.825Z,2.60
2023-02-27T13:41:39.746Z,3.47
2023-02-27T13:44:49.173Z,2.03
2023-02-27T13:47:40.677Z,1.50
2023-02-27T13:50:51.266Z,2.10
2023-02-27T13:53:24.341Z,4.10
2023-02-27T13:55:58.184Z,3.92
2023-02-27T13:58:28.839Z,1.45
2023-02-27T14:01:03.115Z,1.38
2023-02-27T14:03:33.389Z,3.97
2023-02-27T14:06:07.336Z,2.88
2023-02-27T14:08:49.444Z,5.95
2023-02-27T14:11:22.794Z,3.40
2023-02-27T14:14:33.878Z,2.83
2023-02-27T14:17:04.461Z,7.28
2023-02-27T14:19:56.707Z,1.45
2023-02-27T14:22:57.740Z,3.60
2023-02-27T14:25:34.389Z,1.67
2023-02-27T14:28:05.146Z,2.53
2023-02-27T14:30:41.607Z,2.43
2023-02-27T14:33:37.527Z,3.03
2023-02-27T14:36:15.673Z,3.10
2023-02-27T14:38:44.860Z,2.40
2023-02-27T14:41:30.839Z,2.07
2023-02-27T14:44:01.245Z,4.77
2023-02-27T14:46:37.264Z,3.13
2023-02-27T14:49:08.645Z,2.93
2023-02-27T14:51:39.509Z,6.77
2023-02-27T14:54:16.745Z,4.80
2023-02-27T14:56:55.938Z,3.97
2023-02-27T14:59:26.839Z,5.57
2023-02-27T15:02:01.964Z,8.77
2023-02-27T15:04:32.822Z,3.40
2023-02-27T15:07:02.893Z,2.63
2023-02-27T15:09:36.273Z,6.27
2023-02-27T15:12:05.874Z,2.90
2023-02-27T15:14:37.913Z,6.07
2023-02-27T15:17:18.043Z,6.87
2023-02-27T15:19:49.985Z,4.00
2023-02-27T15:22:37.607Z,9.60
2023-02-27T15:25:27.109Z,4.50
2023-02-27T15:27:58.754Z,4.23
2023-02-27T15:30:28.009Z,5.27
2023-02-27T15:32:59.316Z,5.63
2023-02-27T15:35:36.090Z,4.03
2023-02-27T15:38:06.074Z,6.53
2023-02-27T15:40:36.206Z,4.93
2023-02-27T15:43:05.741Z,6.17
2023-02-27T15:45:36.903Z,5.90
2023-02-27T15:48:08.194Z,3.37
2023-02-27T15:50:38.980Z,6.43
2023-02-27T15:53:14.823Z,6.97
2023-02-27T15:55:48.049Z,5.77
2023-02-27T15:58:25.043Z,8.50
2023-02-27T16:01:00.696Z,5.83
2023-02-27T16:03:35.497Z,4.50
2023-02-27T16:06:09.994Z,8.57
2023-02-27T16:08:45.715Z,5.33
2023-02-27T16:11:20.478Z,3.53
2023-02-27T16:13:50.555Z,5.20
2023-02-27T16:16:31.546Z,4.30
2023-02-27T16:19:14.676Z,3.50
2023-02-27T16:22:13.476Z,2.57
2023-02-27T16:24:43.750Z,6.00
2023-02-27T16:27:19.933Z,5.83
2023-02-27T16:29:49.242Z,3.80
2023-02-27T16:32:27.198Z,2.33
2023-02-27T16:35:05.824Z,3.83
2023-02-27T16:37:38.034Z,10.83
2023-02-27T16:40:15.387Z,11.60
2023-02-27T16:42:45.583Z,7.30
2023-02-27T16:45:18.169Z,3.07
2023-02-27T16:47:50.806Z,7.63
2023-02-27T16:50:24.713Z,4.83
2023-02-27T16:52:53.824Z,1.10
2023-02-27T16:55:22.954Z,3.10
2023-02-27T16:57:52.369Z,7.67
2023-02-27T17:00:22.540Z,13.83
2023-02-27T17:02:51.662Z,12.27
2023-02-27T17:05:24.099Z,6.07
2023-02-27T17:07:53.352Z,4.40
2023-02-27T17:10:25.346Z,4.80
2023-02-27T17:12:54.815Z,5.47
2023-02-27T17:15:23.885Z,3.20
2023-02-27T17:17:53.052Z,5.83
2023-02-27T17:20:24.498Z,2.17
2023-02-27T17:22:53.541Z,3.97
2023-02-27T17:25:22.636Z,5.27
2023-02-27T17:27:51.763Z,6.27
2023-02-27T17:30:21.110Z,2.70
2023-02-27T17:32:50.179Z,4.33
2023-02-27T17:35:19.421Z,5.80
2023-02-27T17:37:50.304Z,4.27
2023-02-27T17:40:19.773Z,1.50
2023-02-27T17:42:48.969Z,4.70
2023-02-27T17:45:20.937Z,6.13
2023-02-27T17:47:50.645Z,2.93
2023-02-27T17:50:20.054Z,4.53
2023-02-27T17:52:51.342Z,7.97
2023-02-27T17:55:20.633Z,13.63
2023-02-27T18:02:12.278Z,33.30
2023-02-27T18:04:42.705Z,19.93
2023-02-27T18:07:11.928Z,31.07
2023-02-27T18:09:42.753Z,20.57
2023-02-27T18:12:12.317Z,32.37
2023-02-27T18:14:41.509Z,15.47
2023-02-27T18:17:12.436Z,18.83
2023-02-27T18:19:42.465Z,8.63
2023-02-27T18:22:11.771Z,20.17
2023-02-27T18:24:42.510Z,8.13
2023-02-27T18:27:11.803Z,5.47
2023-02-27T18:29:41.347Z,4.90
2023-02-27T18:32:11.062Z,6.07
2023-02-27T18:34:41.513Z,3.80
2023-02-27T18:37:10.837Z,3.67
2023-02-27T18:39:42.691Z,9.73
2023-02-27T18:42:11.953Z,3.90
2023-02-27T18:44:42.045Z,3.50
2023-02-27T18:47:12.053Z,6.73
2023-02-27T18:49:41.233Z,4.00
2023-02-27T18:52:10.515Z,5.10
2023-02-27T18:54:42.346Z,3.87
2023-02-27T18:57:11.775Z,7.97
2023-02-27T18:59:42.195Z,5.20
2023-02-27T19:02:15.968Z,3.80
2023-02-27T19:04:45.516Z,3.00
2023-02-27T19:07:14.905Z,5.63
2023-02-27T19:09:45.716Z,5.67
2023-02-27T19:12:15.146Z,8.77
2023-02-27T19:14:44.215Z,8.47
2023-02-27T19:17:13.395Z,3.23
2023-02-27T19:19:42.740Z,6.47
2023-02-27T19:22:11.970Z,20.10
2023-02-27T19:24:41.060Z,7.43
2023-02-27T19:27:11.850Z,9.00
2023-02-27T19:29:41.214Z,12.13
2023-02-27T19:32:10.472Z,18.47
2023-02-27T19:34:39.611Z,15.00
2023-02-27T19:37:08.761Z,10.87
2023-02-27T19:39:38.160Z,9.17
2023-02-27T19:42:07.417Z,8.67
2023-02-27T19:44:38.521Z,5.60
2023-02-27T19:47:07.716Z,9.93
2023-02-27T19:49:37.298Z,13.70
2023-02-27T19:52:08.719Z,14.73
2023-02-27T19:54:39.030Z,15.20
2023-02-27T19:57:08.342Z,15.67
2023-02-27T19:59:39.033Z,14.13
2023-02-27T20:02:08.863Z,12.00
2023-02-27T20:04:37.930Z,13.30
2023-02-27T20:07:07.324Z,8.10
2023-02-27T20:09:36.510Z,8.73
2023-02-27T20:12:06.490Z,8.10
2023-02-27T20:14:36.623Z,8.43
2023-02-27T20:17:08.239Z,10.33
2023-02-27T20:19:37.392Z,6.50
2023-02-27T20:22:06.830Z,10.23
2023-02-27T20:24:35.922Z,8.90
2023-02-27T20:27:05.140Z,8.60
2023-02-27T20:29:34.290Z,8.70
2023-02-27T20:32:03.892Z,7.67
2023-02-27T20:34:34.468Z,6.83
2023-02-27T20:37:04.075Z,9.93
2023-02-27T20:39:33.246Z,5.73
2023-02-27T20:42:02.361Z,7.43
2023-02-27T20:44:31.512Z,4.63
2023-02-27T20:47:00.610Z,12.97
2023-02-27T20:49:29.722Z,10.17
2023-02-27T20:52:00.370Z,17.00
2023-02-27T20:54:29.578Z,13.27
2023-02-27T20:56:58.888Z,14.67
2023-02-27T20:59:28.186Z,14.50
2023-02-27T21:01:57.678Z,15.87
2023-02-27T21:04:42.212Z,21.53
2023-02-27T21:07:14.631Z,17.00
2023-02-27T21:09:43.907Z,16.10
2023-02-27T21:12:13.353Z,20.07
2023-02-27T21:14:44.502Z,12.67
2023-02-27T21:17:13.985Z,14.00
2023-02-27T21:19:43.091Z,10.43
2023-02-27T21:22:14.292Z,11.93
2023-02-27T21:24:43.407Z,15.00
2023-02-27T21:27:12.442Z,15.23
2023-02-27T21:29:41.556Z,13.97
2023-02-27T21:32:10.799Z,11.23
2023-02-27T21:34:39.987Z,24.63
2023-02-27T21:37:11.390Z,20.63
2023-02-27T21:39:41.985Z,23.27
2023-02-27T21:42:11.237Z,17.20
2023-02-27T21:44:40.370Z,14.13
2023-02-27T21:47:10.726Z,12.60
2023-02-27T21:49:39.911Z,12.53
2023-02-27T21:52:08.996Z,14.47
2023-02-27T21:54:38.451Z,12.30
2023-02-27T21:57:09.880Z,20.30
2023-02-27T21:59:38.963Z,15.47
2023-02-27T22:02:08.095Z,18.90
2023-02-27T22:04:37.216Z,13.13
2023-02-27T22:07:06.441Z,18.43
2023-02-27T22:09:35.520Z,14.50
2023-02-27T22:12:04.909Z,20.07
2023-02-27T22:14:35.379Z,12.97
2023-02-27T22:17:04.478Z,13.13
2023-02-27T22:19:33.525Z,14.90
2023-02-27T22:22:02.687Z,11.60
2023-02-27T22:24:31.857Z,15.17
2023-02-27T22:27:00.936Z,10.77
2023-02-27T22:29:30.033Z,11.80
2023-02-27T22:32:00.591Z,14.40
2023-02-27T22:34:29.809Z,23.20
2023-02-27T22:36:59.000Z,12.93
2023-02-27T22:39:28.138Z,10.90
2023-02-27T22:41:57.205Z,10.97
2023-02-27T22:44:26.352Z,13.33
2023-02-27T22:46:58.869Z,13.90
2023-02-27T22:49:27.947Z,10.23
2023-02-27T22:51:57.071Z,13.43
2023-02-27T22:54:26.159Z,11.60
2023-02-27T22:56:57.928Z,16.57
2023-02-27T22:59:27.630Z,10.67
2023-02-27T23:01:56.909Z,18.30
2023-02-27T23:04:27.371Z,13.73
2023-02-27T23:06:57.037Z,14.43
2023-02-27T23:09:27.505Z,13.67
2023-02-27T23:11:56.925Z,14.60
2023-02-27T23:14:26.007Z,12.03
2023-02-27T23:16:55.158Z,12.40
2023-02-27T23:19:25.857Z,13.33
2023-02-27T23:21:55.037Z,11.20
2023-02-27T23:24:24.147Z,12.70
2023-02-27T23:26:53.801Z,12.27
2023-02-27T23:29:22.999Z,11.30
2023-02-27T23:31:52.262Z,11.27
2023-02-27T23:34:21.373Z,9.63
2023-02-27T23:36:51.812Z,13.57
2023-02-27T23:39:20.870Z,10.13
2023-02-27T23:41:50.321Z,10.80
2023-02-27T23:44:19.409Z,11.30
2023-02-27T23:46:48.539Z,15.23
2023-02-27T23:49:17.616Z,10.80
2023-02-27T23:51:47.100Z,11.27
2023-02-27T23:54:17.536Z,15.33
2023-02-27T23:56:48.823Z,8.33
2023-02-27T23:59:17.964Z,10.97
